Time;durP1;ratioP1;P1;durP2;ratioP2;P2;SDS_P1;SDS_P2;PMS_P1;PMS_P2;Temp;Humidity;BMP_temperature;BMP_pressure;BME280_temperature;BME280_humidity;BME280_pressure;Samples;Min_cycle;Max_cycle;Signal;HPM_P1;HPM_P2
2023/04/04 00:01:13;;;;;;;20.92;12.10;;;;;;;;;;4992613;28;20030;-57
2023/04/04 00:03:39;;;;;;;18.52;10.80;;;;;;;;;;4991713;28;20476;-59
2023/04/04 00:06:05;;;;;;;21.02;11.55;;;;;;;;;;4992380;28;20030;-59
2023/04/04 00:08:31;;;;;;;19.65;10.77;;;;;;;;;;4992501;28;20379;-58
2023/04/04 00:10:58;;;;;;;21.92;11.13;;;;;;;;;;4992414;28;20026;-60
2023/04/04 00:13:25;;;;;;;17.42;10.13;;;;;;;;;;4991770;28;20095;-60
2023/04/04 00:15:51;;;;;;;17.52;9.85;;;;;;;;;;4992630;28;20041;-60
2023/04/04 00:18:17;;;;;;;18.73;10.10;;;;;;;;;;4992368;28;20037;-53
2023/04/04 00:20:43;;;;;;;17.75;10.00;;;;;;;;;;4992447;28;20022;-60
2023/04/04 00:23:10;;;;;;;17.38;9.50;;;;;;;;;;5028838;23;20068;-69
2023/04/04 00:25:36;;;;;;;16.65;9.45;;;;;;;;;;5030632;28;20053;-69
2023/04/04 00:28:02;;;;;;;17.48;9.68;;;;;;;;;;5029642;28;20017;-68
2023/04/04 00:30:29;;;;;;;16.35;9.30;;;;;;;;;;5030232;28;20014;-68
2023/04/04 00:32:55;;;;;;;16.70;9.07;;;;;;;;;;5030025;28;20021;-66
2023/04/04 00:35:22;;;;;;;16.48;9.77;;;;;;;;;;5029541;28;20029;-67
2023/04/04 00:37:48;;;;;;;19.60;9.85;;;;;;;;;;5025010;28;20482;-69
2023/04/04 00:40:14;;;;;;;16.20;9.90;;;;;;;;;;5029980;28;20033;-66
2023/04/04 00:42:40;;;;;;;18.67;9.70;;;;;;;;;;5029943;28;20079;-68
2023/04/04 00:45:07;;;;;;;16.27;9.50;;;;;;;;;;5029378;28;20070;-68
2023/04/04 00:47:33;;;;;;;16.20;9.73;;;;;;;;;;5029104;28;20028;-68
2023/04/04 00:50:00;;;;;;;17.08;10.18;;;;;;;;;;5030276;28;20458;-65
2023/04/04 00:52:26;;;;;;;17.58;9.85;;;;;;;;;;5028708;28;20079;-67
2023/04/04 00:54:54;;;;;;;16.40;9.43;;;;;;;;;;5028241;28;20482;-69
2023/04/04 00:57:20;;;;;;;18.67;9.65;;;;;;;;;;5029205;28;20495;-68
2023/04/04 00:59:46;;;;;;;16.42;10.05;;;;;;;;;;5030387;28;20820;-69
2023/04/04 01:02:12;;;;;;;16.65;9.25;;;;;;;;;;5030222;28;20045;-65
2023/04/04 01:04:38;;;;;;;15.15;9.35;;;;;;;;;;5029247;28;20017;-66
2023/04/04 01:07:04;;;;;;;17.50;10.02;;;;;;;;;;5028583;28;20095;-68
2023/04/04 01:09:30;;;;;;;19.75;10.20;;;;;;;;;;5030169;28;20076;-66
2023/04/04 01:11:56;;;;;;;17.48;9.60;;;;;;;;;;5031053;28;20068;-68
2023/04/04 01:14:24;;;;;;;18.20;10.07;;;;;;;;;;5029368;28;20025;-68
2023/04/04 01:16:50;;;;;;;17.77;9.35;;;;;;;;;;5028803;28;20026;-67
2023/04/04 01:19:36;;;;;;;17.88;10.10;;;;;;;;;;5030071;28;20133;-68
2023/04/04 01:22:02;;;;;;;17.13;9.30;;;;;;;;;;5030194;28;20076;-68
2023/04/04 01:24:32;;;;;;;17.17;9.65;;;;;;;;;;5027360;28;20117;-66
2023/04/04 01:26:59;;;;;;;17.35;9.65;;;;;;;;;;5028642;28;20060;-67
2023/04/04 01:29:26;;;;;;;16.90;9.93;;;;;;;;;;5028615;28;20052;-67
2023/04/04 01:31:59;;;;;;;16.33;9.13;;;;;;;;;;5029896;28;20109;-67
2023/04/04 01:34:25;;;;;;;16.73;9.93;;;;;;;;;;5027859;28;20030;-67
2023/04/04 01:37:02;;;;;;;16.70;9.80;;;;;;;;;;5028500;28;20017;-67
2023/04/04 01:39:48;;;;;;;18.60;10.07;;;;;;;;;;5029789;28;20053;-68
2023/04/04 01:42:15;;;;;;;52.35;32.60;;;;;;;;;;5031872;28;20477;-68
2023/04/04 01:44:42;;;;;;;31.73;19.15;;;;;;;;;;5032388;28;20474;-68
2023/04/04 01:47:08;;;;;;;36.55;22.52;;;;;;;;;;5033047;28;20054;-68
2023/04/04 01:49:34;;;;;;;21.52;13.23;;;;;;;;;;5031770;28;20029;-67
2023/04/04 01:52:01;;;;;;;34.72;21.23;;;;;;;;;;5033073;28;20494;-67
2023/04/04 01:54:27;;;;;;;22.05;13.43;;;;;;;;;;5031114;28;20028;-66
2023/04/04 01:56:53;;;;;;;16.45;9.75;;;;;;;;;;5033090;28;20471;-67
2023/04/04 01:59:19;;;;;;;15.25;9.60;;;;;;;;;;5032920;28;20152;-67
2023/04/04 02:01:45;;;;;;;17.55;9.60;;;;;;;;;;5032896;28;20107;-67
2023/04/04 02:04:11;;;;;;;17.70;9.23;;;;;;;;;;5032026;28;20021;-66
2023/04/04 02:06:39;;;;;;;16.80;9.57;;;;;;;;;;5031383;28;20026;-67
2023/04/04 02:09:05;;;;;;;17.45;9.68;;;;;;;;;;5032602;28;20025;-67
2023/04/04 02:11:32;;;;;;;16.75;9.85;;;;;;;;;;5032646;28;20497;-65
2023/04/04 02:13:58;;;;;;;15.77;9.25;;;;;;;;;;5032087;28;20475;-66
2023/04/04 02:16:24;;;;;;;19.08;10.38;;;;;;;;;;5031536;28;20448;-67
2023/04/04 02:18:50;;;;;;;16.92;10.50;;;;;;;;;;5031344;28;20021;-66
2023/04/04 02:21:16;;;;;;;17.13;10.20;;;;;;;;;;5032549;28;20028;-66
2023/04/04 02:23:42;;;;;;;16.85;9.57;;;;;;;;;;5031638;28;20431;-65
2023/04/04 02:26:08;;;;;;;17.30;9.57;;;;;;;;;;5031248;28;20022;-67
2023/04/04 02:28:34;;;;;;;15.93;9.88;;;;;;;;;;5031357;28;20028;-68
2023/04/04 02:31:04;;;;;;;16.60;9.55;;;;;;;;;;5032464;28;20079;-66
2023/04/04 02:33:30;;;;;;;16.05;9.50;;;;;;;;;;5031726;28;20048;-67
2023/04/04 02:36:00;;;;;;;16.55;9.95;;;;;;;;;;5032398;28;20022;-66
2023/04/04 02:38:26;;;;;;;16.38;9.90;;;;;;;;;;5032393;28;20578;-67
2023/04/04 02:40:52;;;;;;;16.08;9.70;;;;;;;;;;5032373;28;20490;-67
2023/04/04 02:43:18;;;;;;;17.50;9.93;;;;;;;;;;5031632;28;20021;-66
2023/04/04 02:45:44;;;;;;;17.10;9.70;;;;;;;;;;5031324;28;20091;-67
2023/04/04 02:48:10;;;;;;;16.58;9.80;;;;;;;;;;5032080;28;20021;-67
2023/04/04 02:50:37;;;;;;;20.17;11.15;;;;;;;;;;5030182;28;20017;-67
2023/04/04 02:53:03;;;;;;;16.20;10.32;;;;;;;;;;5031026;28;20370;-65
2023/04/04 02:55:30;;;;;;;16.23;9.85;;;;;;;;;;5031709;28;20506;-67
2023/04/04 02:57:57;;;;;;;17.65;9.82;;;;;;;;;;5032025;28;20022;-68
2023/04/04 03:00:23;;;;;;;18.75;10.23;;;;;;;;;;5031559;28;20424;-67
2023/04/04 03:02:55;;;;;;;16.92;10.13;;;;;;;;;;5031524;28;20480;-66
2023/04/04 03:05:21;;;;;;;15.95;10.07;;;;;;;;;;5030841;28;20040;-67
2023/04/04 03:07:47;;;;;;;16.38;10.43;;;;;;;;;;5030352;28;20021;-66
2023/04/04 03:10:13;;;;;;;19.83;10.60;;;;;;;;;;5030315;28;20383;-68
2023/04/04 03:12:39;;;;;;;17.70;10.45;;;;;;;;;;5031686;28;20096;-69
2023/04/04 03:15:06;;;;;;;16.73;10.00;;;;;;;;;;5029783;28;20033;-65
2023/04/04 03:17:32;;;;;;;16.33;9.93;;;;;;;;;;5031593;28;20025;-68
2023/04/04 03:19:58;;;;;;;15.27;9.52;;;;;;;;;;5031898;28;20541;-66
2023/04/04 03:22:24;;;;;;;17.80;9.82;;;;;;;;;;5031559;28;20029;-68
2023/04/04 03:24:51;;;;;;;18.77;10.00;;;;;;;;;;5030855;28;20123;-68
2023/04/04 03:27:16;;;;;;;16.50;10.07;;;;;;;;;;5031695;28;20081;-66
2023/04/04 03:29:42;;;;;;;17.60;10.43;;;;;;;;;;5030165;28;20090;-67
2023/04/04 03:32:08;;;;;;;17.00;9.95;;;;;;;;;;5031394;28;20386;-67
2023/04/04 03:34:34;;;;;;;20.80;10.57;;;;;;;;;;5029187;28;20061;-67
2023/04/04 03:37:00;;;;;;;15.38;9.68;;;;;;;;;;5030991;28;20077;-68
2023/04/04 03:39:28;;;;;;;15.02;9.48;;;;;;;;;;5031390;28;20049;-66
2023/04/04 03:41:54;;;;;;;16.98;10.18;;;;;;;;;;5031247;28;20083;-68
2023/04/04 03:44:20;;;;;;;22.67;10.43;;;;;;;;;;5030190;28;20033;-67
2023/04/04 03:46:46;;;;;;;16.02;9.52;;;;;;;;;;5030874;28;20033;-67
2023/04/04 03:49:12;;;;;;;16.08;9.80;;;;;;;;;;5031138;28;20028;-66
2023/04/04 03:51:38;;;;;;;17.10;9.40;;;;;;;;;;5029415;28;20026;-68
2023/04/04 03:54:04;;;;;;;16.52;10.18;;;;;;;;;;5028644;28;20079;-68
2023/04/04 03:56:31;;;;;;;15.35;9.32;;;;;;;;;;5029745;28;20021;-68
2023/04/04 03:58:57;;;;;;;17.27;10.27;;;;;;;;;;5030846;28;20026;-66
2023/04/04 04:01:23;;;;;;;18.33;10.32;;;;;;;;;;5030845;28;20030;-66
2023/04/04 04:03:49;;;;;;;15.88;10.00;;;;;;;;;;5028009;28;20163;-67
2023/04/04 04:06:15;;;;;;;17.38;10.32;;;;;;;;;;5030550;28;20029;-67
2023/04/04 04:08:41;;;;;;;17.25;10.32;;;;;;;;;;5029317;28;20065;-65
2023/04/04 04:11:08;;;;;;;16.65;10.13;;;;;;;;;;5030477;28;20022;-68
2023/04/04 04:13:36;;;;;;;17.45;10.48;;;;;;;;;;5028520;28;20512;-67
2023/04/04 04:16:02;;;;;;;19.27;10.77;;;;;;;;;;5030727;28;20025;-64
2023/04/04 04:18:28;;;;;;;17.40;11.13;;;;;;;;;;5030643;28;20029;-65
2023/04/04 04:21:02;;;;;;;15.85;10.07;;;;;;;;;;5029520;28;20032;-66
2023/04/04 04:23:29;;;;;;;15.75;10.02;;;;;;;;;;5029160;28;20049;-65
2023/04/04 04:25:55;;;;;;;17.08;10.48;;;;;;;;;;5030982;28;20087;-67
2023/04/04 04:28:23;;;;;;;17.23;10.65;;;;;;;;;;5030584;28;20529;-66
2023/04/04 04:30:50;;;;;;;17.35;10.45;;;;;;;;;;5029488;28;20077;-67
2023/04/04 04:33:16;;;;;;;16.70;10.30;;;;;;;;;;5029158;28;20125;-68
2023/04/04 04:35:42;;;;;;;17.92;10.82;;;;;;;;;;5029330;28;20025;-66
2023/04/04 04:38:08;;;;;;;18.55;11.32;;;;;;;;;;5030500;28;20022;-67
2023/04/04 04:40:34;;;;;;;21.23;11.05;;;;;;;;;;5030500;28;20108;-69
2023/04/04 04:43:00;;;;;;;17.70;11.15;;;;;;;;;;5030228;28;20025;-65
2023/04/04 04:45:26;;;;;;;19.52;11.40;;;;;;;;;;5029500;28;20519;-67
2023/04/04 04:47:52;;;;;;;17.13;10.70;;;;;;;;;;5029110;28;20018;-68
2023/04/04 04:50:18;;;;;;;17.65;11.30;;;;;;;;;;5029057;28;20077;-67
2023/04/04 04:52:44;;;;;;;15.95;11.25;;;;;;;;;;5028926;28;20029;-67
2023/04/04 04:55:10;;;;;;;17.80;10.55;;;;;;;;;;5029575;28;20021;-67
2023/04/04 04:57:37;;;;;;;18.08;10.95;;;;;;;;;;5029505;28;20112;-67
2023/04/04 05:00:04;;;;;;;18.30;10.98;;;;;;;;;;5031304;28;20029;-66
2023/04/04 05:02:30;;;;;;;17.42;11.43;;;;;;;;;;5029750;28;20363;-67
2023/04/04 05:04:56;;;;;;;17.98;11.10;;;;;;;;;;5028575;28;20366;-67
2023/04/04 05:07:22;;;;;;;18.35;11.32;;;;;;;;;;5030192;28;20030;-67
2023/04/04 05:09:52;;;;;;;18.88;11.00;;;;;;;;;;5030242;28;20053;-68
2023/04/04 05:12:18;;;;;;;17.13;10.40;;;;;;;;;;5030223;28;20022;-68
2023/04/04 05:14:44;;;;;;;19.63;10.90;;;;;;;;;;5031244;28;20025;-68
2023/04/04 05:17:10;;;;;;;17.73;11.18;;;;;;;;;;5034401;28;20105;-69
2023/04/04 05:19:36;;;;;;;19.33;10.88;;;;;;;;;;5033688;28;20029;-68
2023/04/04 05:22:02;;;;;;;17.52;11.25;;;;;;;;;;5027043;28;20025;-67
2023/04/04 05:24:28;;;;;;;16.98;10.75;;;;;;;;;;5032421;28;20031;-66
2023/04/04 05:26:54;;;;;;;17.02;9.93;;;;;;;;;;5033072;28;20471;-69
2023/04/04 05:29:20;;;;;;;16.10;10.45;;;;;;;;;;5031875;28;20018;-67
2023/04/04 05:31:46;;;;;;;22.73;11.05;;;;;;;;;;5031518;28;20021;-69
2023/04/04 05:34:12;;;;;;;18.60;10.70;;;;;;;;;;5032017;28;20079;-67
2023/04/04 05:36:38;;;;;;;18.63;12.23;;;;;;;;;;5033026;28;20025;-69
2023/04/04 05:39:04;;;;;;;17.25;10.80;;;;;;;;;;5033145;28;20501;-70
2023/04/04 05:41:31;;;;;;;19.30;12.10;;;;;;;;;;5032972;28;20026;-69
2023/04/04 05:43:57;;;;;;;19.00;12.13;;;;;;;;;;5032189;28;20033;-68
2023/04/04 05:46:23;;;;;;;18.58;10.95;;;;;;;;;;5032875;28;20125;-67
2023/04/04 05:48:50;;;;;;;19.33;11.40;;;;;;;;;;5032589;28;20071;-66
2023/04/04 05:51:16;;;;;;;19.45;11.18;;;;;;;;;;5032715;28;20029;-67
2023/04/04 05:53:44;;;;;;;21.13;11.50;;;;;;;;;;5032126;28;20034;-66
2023/04/04 05:56:10;;;;;;;17.33;11.10;;;;;;;;;;5032794;28;20092;-67
2023/04/04 05:58:37;;;;;;;20.17;11.07;;;;;;;;;;5032811;28;20299;-67
2023/04/04 06:01:07;;;;;;;18.20;11.07;;;;;;;;;;5032861;28;20033;-67
2023/04/04 06:03:33;;;;;;;16.50;10.63;;;;;;;;;;5030658;28;20103;-69
2023/04/04 06:06:01;;;;;;;17.38;11.43;;;;;;;;;;5032275;28;20116;-68
2023/04/04 06:08:27;;;;;;;22.60;11.60;;;;;;;;;;5031088;28;20390;-69
2023/04/04 06:10:54;;;;;;;21.02;11.93;;;;;;;;;;5032699;28;20287;-68
2023/04/04 06:13:21;;;;;;;20.23;12.50;;;;;;;;;;5031728;28;20076;-65
2023/04/04 06:15:47;;;;;;;17.60;10.98;;;;;;;;;;5031918;28;20441;-63
2023/04/04 06:18:13;;;;;;;20.05;11.30;;;;;;;;;;5031305;28;20029;-66
2023/04/04 06:20:39;;;;;;;27.85;12.73;;;;;;;;;;5029034;28;20025;-65
2023/04/04 06:23:05;;;;;;;19.50;12.15;;;;;;;;;;5046598;22;20041;-61
2023/04/04 06:25:31;;;;;;;18.20;11.70;;;;;;;;;;5010188;28;20054;-61
2023/04/04 06:27:58;;;;;;;18.58;12.15;;;;;;;;;;5010517;28;20041;-62
2023/04/04 06:30:24;;;;;;;18.23;11.75;;;;;;;;;;5025141;28;20501;-62
2023/04/04 06:32:51;;;;;;;21.52;11.50;;;;;;;;;;5012668;28;20022;-62
2023/04/04 06:35:17;;;;;;;21.10;12.48;;;;;;;;;;4991685;28;20042;-62
2023/04/04 06:37:43;;;;;;;19.02;11.48;;;;;;;;;;4992612;28;20481;-62
2023/04/04 06:40:09;;;;;;;17.92;11.18;;;;;;;;;;4993642;28;20034;-62
2023/04/04 06:42:35;;;;;;;20.58;11.80;;;;;;;;;;4992117;28;20026;-62
2023/04/04 06:45:01;;;;;;;17.65;11.00;;;;;;;;;;4992591;28;20037;-62
2023/04/04 06:47:27;;;;;;;17.10;11.45;;;;;;;;;;4991180;28;20027;-62
2023/04/04 06:49:53;;;;;;;19.10;11.25;;;;;;;;;;4993599;28;20026;-62
2023/04/04 06:52:19;;;;;;;20.35;11.85;;;;;;;;;;4993400;28;20029;-63
2023/04/04 06:54:45;;;;;;;20.83;12.00;;;;;;;;;;4992848;28;20033;-62
2023/04/04 06:57:11;;;;;;;17.55;11.18;;;;;;;;;;4993371;28;20093;-57
2023/04/04 06:59:37;;;;;;;20.33;11.35;;;;;;;;;;4991369;28;20054;-60
2023/04/04 07:02:03;;;;;;;19.13;11.73;;;;;;;;;;4988157;28;20510;-60
2023/04/04 07:04:33;;;;;;;22.80;14.38;;;;;;;;;;4992322;28;20038;-60
2023/04/04 07:06:59;;;;;;;18.90;11.63;;;;;;;;;;4993030;28;20058;-59
2023/04/04 07:09:27;;;;;;;22.52;12.95;;;;;;;;;;4993260;28;20038;-60
2023/04/04 07:11:53;;;;;;;24.17;12.67;;;;;;;;;;4993270;28;20109;-60
2023/04/04 07:14:23;;;;;;;21.92;12.52;;;;;;;;;;4991339;28;20382;-60
2023/04/04 07:16:49;;;;;;;20.80;12.95;;;;;;;;;;4987467;28;20034;-60
2023/04/04 07:19:16;;;;;;;20.02;12.18;;;;;;;;;;4988641;28;20026;-59
2023/04/04 07:21:42;;;;;;;18.90;12.77;;;;;;;;;;4992750;28;20030;-60
2023/04/04 07:24:08;;;;;;;23.73;12.05;;;;;;;;;;4990592;28;20045;-62
2023/04/04 07:26:34;;;;;;;19.98;11.85;;;;;;;;;;4992452;28;20034;-63
2023/04/04 07:29:00;;;;;;;17.00;11.60;;;;;;;;;;4992744;28;20037;-58
2023/04/04 07:31:27;;;;;;;21.02;12.20;;;;;;;;;;4992278;28;20562;-61
2023/04/04 07:33:53;;;;;;;19.00;12.13;;;;;;;;;;4991646;28;20026;-64
2023/04/04 07:36:19;;;;;;;19.48;12.20;;;;;;;;;;4992716;28;20619;-61
2023/04/04 07:38:45;;;;;;;17.17;11.57;;;;;;;;;;4992784;28;20124;-64
2023/04/04 07:41:11;;;;;;;22.50;12.43;;;;;;;;;;4992817;28;20034;-63
2023/04/04 07:43:37;;;;;;;19.27;12.35;;;;;;;;;;4992090;28;20030;-64
2023/04/04 07:46:04;;;;;;;19.27;12.82;;;;;;;;;;4992573;28;20398;-62
2023/04/04 07:48:30;;;;;;;19.23;12.13;;;;;;;;;;4993106;28;20036;-63
2023/04/04 07:50:56;;;;;;;24.58;12.40;;;;;;;;;;4992401;28;20027;-64
2023/04/04 07:53:22;;;;;;;17.70;11.82;;;;;;;;;;4992973;28;20117;-63
2023/04/04 07:55:48;;;;;;;21.50;12.55;;;;;;;;;;5001238;28;20081;-61
2023/04/04 07:58:14;;;;;;;19.55;11.77;;;;;;;;;;4999502;28;20386;-65
2023/04/04 08:00:40;;;;;;;20.13;13.05;;;;;;;;;;4996568;28;20073;-63
2023/04/04 08:03:06;;;;;;;21.50;12.27;;;;;;;;;;4992052;28;20054;-62
2023/04/04 08:05:32;;;;;;;17.50;12.25;;;;;;;;;;4992439;28;20569;-61
2023/04/04 08:07:59;;;;;;;18.80;12.20;;;;;;;;;;4992454;28;20046;-63
2023/04/04 08:10:26;;;;;;;20.45;11.88;;;;;;;;;;4992308;28;20479;-63
2023/04/04 08:12:52;;;;;;;18.02;12.20;;;;;;;;;;4991970;28;20077;-62
2023/04/04 08:15:18;;;;;;;19.10;11.50;;;;;;;;;;4642270;28;10000281;-62
2023/04/04 08:17:44;;;;;;;21.65;12.32;;;;;;;;;;4989753;28;20030;-64
2023/04/04 08:20:11;;;;;;;18.02;11.25;;;;;;;;;;4987553;28;20125;-64
2023/04/04 08:22:37;;;;;;;19.75;11.65;;;;;;;;;;4987035;28;20487;-65
2023/04/04 08:25:03;;;;;;;18.15;11.57;;;;;;;;;;4968189;28;20405;-64
2023/04/04 08:27:29;;;;;;;18.00;11.88;;;;;;;;;;4967902;28;20558;-64
2023/04/04 08:29:55;;;;;;;18.05;11.75;;;;;;;;;;4969879;28;20034;-63
2023/04/04 08:32:21;;;;;;;16.77;12.63;;;;;;;;;;4981125;28;20391;-62
2023/04/04 08:34:47;;;;;;;16.27;11.45;;;;;;;;;;4989169;28;20034;-62
2023/04/04 08:37:13;;;;;;;19.10;12.02;;;;;;;;;;4989322;28;20034;-65
2023/04/04 08:39:39;;;;;;;16.77;11.20;;;;;;;;;;4989283;28;20022;-63
2023/04/04 08:42:06;;;;;;;16.05;11.13;;;;;;;;;;4989560;28;20479;-63
2023/04/04 08:44:33;;;;;;;16.23;11.20;;;;;;;;;;4988612;28;20042;-63
2023/04/04 08:47:00;;;;;;;17.17;10.88;;;;;;;;;;4989729;28;20085;-63
2023/04/04 08:49:27;;;;;;;18.30;11.60;;;;;;;;;;4978490;28;20027;-63
2023/04/04 08:51:55;;;;;;;16.20;12.00;;;;;;;;;;4974195;28;20158;-63
2023/04/04 08:54:22;;;;;;;18.88;11.20;;;;;;;;;;4972659;28;20464;-61
2023/04/04 08:56:48;;;;;;;15.88;10.90;;;;;;;;;;4975022;28;20395;-63
2023/04/04 09:02:29;;;;;;;17.30;11.35;;;;;;;;;;4955918;28;20042;-64
2023/04/04 09:04:56;;;;;;;18.05;10.70;;;;;;;;;;4981187;28;20510;-65
2023/04/04 09:07:22;;;;;;;17.58;11.60;;;;;;;;;;4991830;28;20113;-64
2023/04/04 09:09:49;;;;;;;15.93;10.63;;;;;;;;;;4991982;28;20026;-63
2023/04/04 09:12:15;;;;;;;18.30;11.07;;;;;;;;;;4992019;28;20026;-65
2023/04/04 09:14:42;;;;;;;17.67;12.50;;;;;;;;;;4990728;28;20063;-64
2023/04/04 09:17:09;;;;;;;19.55;11.68;;;;;;;;;;4994133;28;20034;-64
2023/04/04 09:19:36;;;;;;;18.20;11.48;;;;;;;;;;4994529;28;20502;-65
2023/04/04 09:22:02;;;;;;;17.95;11.55;;;;;;;;;;4995058;28;20023;-64
2023/04/04 09:24:44;;;;;;;18.05;11.18;;;;;;;;;;4993818;28;20046;-64
2023/04/04 09:27:11;;;;;;;16.85;10.40;;;;;;;;;;4995190;28;20041;-64
2023/04/04 09:29:38;;;;;;;17.33;11.52;;;;;;;;;;4995131;28;20026;-64
2023/04/04 09:32:04;;;;;;;19.23;11.50;;;;;;;;;;4995078;28;20026;-63
2023/04/04 09:34:32;;;;;;;17.77;11.82;;;;;;;;;;4993843;28;20391;-64
2023/04/04 09:36:59;;;;;;;15.27;11.10;;;;;;;;;;4993393;28;20038;-64
2023/04/04 09:39:25;;;;;;;18.92;12.18;;;;;;;;;;4994509;28;20280;-64
2023/04/04 09:41:51;;;;;;;19.30;12.20;;;;;;;;;;4994448;28;20037;-64
2023/04/04 09:44:17;;;;;;;16.75;11.00;;;;;;;;;;4994127;28;20022;-62
2023/04/04 09:46:44;;;;;;;16.88;10.73;;;;;;;;;;4994836;28;20065;-64
2023/04/04 09:49:10;;;;;;;16.40;10.85;;;;;;;;;;4993165;28;20438;-64
2023/04/04 09:51:37;;;;;;;16.77;10.98;;;;;;;;;;4993256;28;20684;-62
2023/04/04 09:54:05;;;;;;;17.98;11.63;;;;;;;;;;4993454;28;20077;-64
2023/04/04 09:56:33;;;;;;;16.60;11.48;;;;;;;;;;4994606;28;20105;-64
2023/04/04 09:59:00;;;;;;;17.70;11.20;;;;;;;;;;4994878;28;20023;-63
2023/04/04 10:01:28;;;;;;;18.97;11.10;;;;;;;;;;4993275;28;20032;-61
2023/04/04 10:03:54;;;;;;;16.70;10.95;;;;;;;;;;4993302;28;20376;-63
2023/04/04 10:06:21;;;;;;;16.67;11.32;;;;;;;;;;4994246;28;20101;-61
2023/04/04 10:08:48;;;;;;;16.40;11.70;;;;;;;;;;4993109;28;20483;-65
2023/04/04 10:11:27;;;;;;;16.98;11.38;;;;;;;;;;4994039;28;20069;-64
2023/04/04 10:13:53;;;;;;;17.50;11.30;;;;;;;;;;4991939;28;20453;-64
2023/04/04 10:16:20;;;;;;;16.80;10.88;;;;;;;;;;4989291;28;20030;-62
2023/04/04 10:18:47;;;;;;;17.48;11.57;;;;;;;;;;5004930;28;20037;-63
2023/04/04 10:21:13;;;;;;;16.05;11.32;;;;;;;;;;4992659;28;20045;-64
2023/04/04 10:23:41;;;;;;;16.48;11.30;;;;;;;;;;4991482;28;20030;-63
2023/04/04 10:26:07;;;;;;;16.75;11.05;;;;;;;;;;4993468;28;20089;-63
2023/04/04 10:28:33;;;;;;;22.85;12.25;;;;;;;;;;4992264;28;20491;-63
2023/04/04 10:31:07;;;;;;;17.65;11.40;;;;;;;;;;4993696;28;20042;-63
2023/04/04 10:33:48;;;;;;;16.95;11.32;;;;;;;;;;4991484;28;20046;-63
2023/04/04 10:36:16;;;;;;;16.27;11.13;;;;;;;;;;4993625;28;20030;-61
2023/04/04 10:38:43;;;;;;;17.90;10.70;;;;;;;;;;4993804;28;20093;-59
2023/04/04 10:41:10;;;;;;;16.70;11.07;;;;;;;;;;4993483;28;20034;-61
2023/04/04 10:43:40;;;;;;;16.45;11.32;;;;;;;;;;4994149;28;20034;-57
2023/04/04 10:46:15;;;;;;;16.65;11.75;;;;;;;;;;4993899;28;20029;-64
2023/04/04 10:48:41;;;;;;;16.98;11.00;;;;;;;;;;4992307;28;20021;-65
2023/04/04 10:51:07;;;;;;;18.40;10.80;;;;;;;;;;4993501;28;20037;-64
2023/04/04 10:53:34;;;;;;;17.15;10.70;;;;;;;;;;4991494;28;20022;-64
2023/04/04 10:56:01;;;;;;;18.05;11.25;;;;;;;;;;4991920;28;20035;-61
2023/04/04 10:58:30;;;;;;;19.13;11.35;;;;;;;;;;4993212;28;20073;-61
2023/04/04 11:00:56;;;;;;;17.15;11.15;;;;;;;;;;4993169;28;20030;-63
2023/04/04 11:03:24;;;;;;;16.88;10.77;;;;;;;;;;4991925;28;20030;-62
2023/04/04 11:05:54;;;;;;;16.30;10.52;;;;;;;;;;4993062;28;20023;-62
2023/04/04 11:08:24;;;;;;;15.52;11.02;;;;;;;;;;4993206;28;20031;-63
2023/04/04 11:10:51;;;;;;;15.63;10.68;;;;;;;;;;4991507;28;20053;-62
2023/04/04 11:13:17;;;;;;;16.40;10.75;;;;;;;;;;4992267;28;20482;-63
2023/04/04 11:15:46;;;;;;;17.27;11.65;;;;;;;;;;4992879;28;20109;-63
2023/04/04 11:18:12;;;;;;;17.33;11.45;;;;;;;;;;4993029;28;20033;-60
2023/04/04 11:20:44;;;;;;;16.50;11.43;;;;;;;;;;4991864;28;20092;-63
2023/04/04 11:23:10;;;;;;;19.38;12.00;;;;;;;;;;4991865;28;20026;-63
2023/04/04 11:25:36;;;;;;;17.05;12.23;;;;;;;;;;4992870;28;20033;-62
2023/04/04 11:28:06;;;;;;;17.98;13.13;;;;;;;;;;4992717;28;20023;-62
2023/04/04 11:30:36;;;;;;;16.35;12.30;;;;;;;;;;4991273;28;20018;-63
2023/04/04 11:33:02;;;;;;;16.73;12.27;;;;;;;;;;4990476;28;20029;-63
2023/04/04 11:35:28;;;;;;;16.55;12.40;;;;;;;;;;4992564;28;20399;-62
2023/04/04 11:37:54;;;;;;;17.85;12.88;;;;;;;;;;4992474;28;20026;-62
2023/04/04 11:40:22;;;;;;;20.58;12.82;;;;;;;;;;4992558;28;20026;-62
2023/04/04 11:42:54;;;;;;;16.40;12.37;;;;;;;;;;4992885;28;20026;-64
2023/04/04 11:45:21;;;;;;;18.85;12.77;;;;;;;;;;4990665;28;20027;-62
2023/04/04 11:47:47;;;;;;;17.58;12.27;;;;;;;;;;4992184;28;20109;-63
2023/04/04 11:50:14;;;;;;;18.23;12.80;;;;;;;;;;4992293;28;20426;-61
2023/04/04 11:52:41;;;;;;;20.63;13.88;;;;;;;;;;4990799;28;20027;-62
2023/04/04 11:55:17;;;;;;;17.92;12.95;;;;;;;;;;4991115;28;20027;-62
2023/04/04 11:57:43;;;;;;;17.83;13.18;;;;;;;;;;4992098;28;20092;-64
2023/04/04 12:00:11;;;;;;;17.50;12.98;;;;;;;;;;4990789;28;20070;-63
2023/04/04 12:02:38;;;;;;;16.75;13.45;;;;;;;;;;4991823;28;20022;-62
2023/04/04 12:05:05;;;;;;;16.42;13.02;;;;;;;;;;4990666;28;20486;-63
2023/04/04 12:07:31;;;;;;;17.55;12.80;;;;;;;;;;4992053;28;20096;-60
2023/04/04 12:09:58;;;;;;;18.23;13.13;;;;;;;;;;4994409;28;20022;-65
2023/04/04 12:12:25;;;;;;;17.58;13.55;;;;;;;;;;4994416;28;20360;-62
2023/04/04 12:14:53;;;;;;;16.77;13.20;;;;;;;;;;4992459;28;20029;-63
2023/04/04 12:17:19;;;;;;;17.65;13.20;;;;;;;;;;4987081;28;20153;-58
2023/04/04 12:19:45;;;;;;;16.92;13.25;;;;;;;;;;4990197;28;20164;-65
2023/04/04 12:22:11;;;;;;;16.98;13.20;;;;;;;;;;4991785;28;20050;-63
2023/04/04 12:24:37;;;;;;;17.05;13.10;;;;;;;;;;5013465;23;20209;-64
2023/04/04 12:27:04;;;;;;;17.08;13.50;;;;;;;;;;4992352;28;20413;-63
2023/04/04 12:29:35;;;;;;;16.38;13.15;;;;;;;;;;4992321;28;20442;-64
2023/04/04 12:32:01;;;;;;;17.27;13.40;;;;;;;;;;4992410;28;20107;-65
2023/04/04 12:34:32;;;;;;;17.67;13.63;;;;;;;;;;4991669;28;20023;-66
2023/04/04 12:37:00;;;;;;;16.83;12.93;;;;;;;;;;4992472;28;20495;-66
2023/04/04 12:39:27;;;;;;;17.53;13.63;;;;;;;;;;4990807;28;20026;-66
2023/04/04 12:41:53;;;;;;;17.58;13.55;;;;;;;;;;4298987;28;10000666;-64
2023/04/04 12:44:26;;;;;;;17.58;13.98;;;;;;;;;;4988745;28;20038;-65
2023/04/04 12:46:56;;;;;;;19.55;13.80;;;;;;;;;;4989323;28;20030;-62
2023/04/04 12:49:22;;;;;;;19.27;14.05;;;;;;;;;;4986129;28;20033;-67
2023/04/04 12:51:48;;;;;;;17.38;14.30;;;;;;;;;;4988302;28;20201;-67
2023/04/04 12:54:25;;;;;;;18.10;14.27;;;;;;;;;;4988087;28;20418;-66
2023/04/04 12:56:56;;;;;;;18.42;14.25;;;;;;;;;;4987951;28;20130;-66
2023/04/04 12:59:22;;;;;;;17.08;13.90;;;;;;;;;;4990952;28;20030;-66
2023/04/04 13:01:48;;;;;;;18.35;14.30;;;;;;;;;;4641966;28;10000230;-66
2023/04/04 13:04:16;;;;;;;17.45;13.52;;;;;;;;;;4986982;28;20034;-65
2023/04/04 13:06:45;;;;;;;18.38;13.65;;;;;;;;;;4989276;28;20091;-66
2023/04/04 13:09:16;;;;;;;17.08;14.02;;;;;;;;;;4989454;28;20030;-66
2023/04/04 13:12:03;;;;;;;21.60;14.20;;;;;;;;;;4989201;28;20483;-66
2023/04/04 13:14:49;;;;;;;17.83;14.27;;;;;;;;;;4987553;28;20034;-64
2023/04/04 13:17:15;;;;;;;17.30;13.90;;;;;;;;;;4988042;28;20444;-66
2023/04/04 13:19:41;;;;;;;18.70;14.45;;;;;;;;;;4989163;28;20192;-66
2023/04/04 13:22:10;;;;;;;20.20;14.20;;;;;;;;;;4989079;28;20137;-65
2023/04/04 13:24:36;;;;;;;19.20;14.55;;;;;;;;;;4967506;28;20388;-65
2023/04/04 13:27:02;;;;;;;18.08;14.10;;;;;;;;;;4969682;28;20034;-65
2023/04/04 13:29:28;;;;;;;19.10;14.45;;;;;;;;;;4975883;28;20068;-66
2023/04/04 13:31:54;;;;;;;20.23;12.93;;;;;;;;;;4990832;28;20022;-66
2023/04/04 13:34:22;;;;;;;17.67;13.65;;;;;;;;;;4988490;28;20050;-66
2023/04/04 13:36:48;;;;;;;18.50;14.02;;;;;;;;;;4995009;28;20029;-63
2023/04/04 13:39:14;;;;;;;18.25;13.93;;;;;;;;;;4993358;28;20113;-66
2023/04/04 13:41:40;;;;;;;20.23;15.80;;;;;;;;;;5001827;28;20022;-68
2023/04/04 13:44:06;;;;;;;19.55;14.10;;;;;;;;;;4993965;28;20022;-64
2023/04/04 13:46:32;;;;;;;19.15;14.70;;;;;;;;;;4994174;28;20058;-67
2023/04/04 13:48:58;;;;;;;17.38;14.05;;;;;;;;;;4994472;28;20054;-67
2023/04/04 13:51:25;;;;;;;18.52;14.38;;;;;;;;;;4994480;28;20026;-66
2023/04/04 13:53:51;;;;;;;19.23;13.68;;;;;;;;;;4989746;28;20018;-67
2023/04/04 13:56:17;;;;;;;17.52;13.27;;;;;;;;;;4992294;28;20036;-65
2023/04/04 13:58:43;;;;;;;16.27;13.73;;;;;;;;;;4992569;28;20026;-66
2023/04/04 14:01:09;;;;;;;18.55;14.18;;;;;;;;;;4992741;28;20034;-65
2023/04/04 14:03:35;;;;;;;18.63;13.93;;;;;;;;;;4991964;28;20133;-65
2023/04/04 14:06:02;;;;;;;18.70;13.68;;;;;;;;;;4987119;28;20073;-65
2023/04/04 14:08:29;;;;;;;18.77;14.38;;;;;;;;;;4981964;28;20049;-65
2023/04/04 14:10:55;;;;;;;16.95;14.10;;;;;;;;;;4991020;28;20076;-65
2023/04/04 14:13:21;;;;;;;20.08;14.25;;;;;;;;;;4991961;28;20034;-65
2023/04/04 14:15:48;;;;;;;18.63;14.30;;;;;;;;;;4992296;28;20026;-67
2023/04/04 14:18:15;;;;;;;18.35;14.32;;;;;;;;;;4992004;28;20066;-64
2023/04/04 14:20:41;;;;;;;18.75;13.82;;;;;;;;;;4993195;28;20035;-66